createdAt,value
2022-11-10T00:00:01.132Z,99413.63
2022-11-10T00:02:48.094Z,99422.94
2022-11-10T00:05:34.888Z,99425.03
2022-11-10T00:08:21.453Z,99432.94
2022-11-10T00:11:08.730Z,99431.66
2022-11-10T00:14:14.014Z,99433.25
2022-11-10T00:17:04.687Z,99428.31
2022-11-10T00:19:51.632Z,99437.69
2022-11-10T00:22:39.427Z,99434.78
2022-11-10T00:25:27.820Z,99439.00
2022-11-10T00:28:14.329Z,99449.09
2022-11-10T00:31:06.914Z,99437.94
2022-11-10T00:33:53.187Z,99443.13
2022-11-10T00:36:40.106Z,99450.88
2022-11-10T00:39:27.099Z,99448.53
2022-11-10T00:42:13.762Z,99456.41
2022-11-10T00:45:00.131Z,99457.75
2022-11-10T00:47:48.322Z,99449.97
2022-11-10T00:50:34.801Z,99450.59
2022-11-10T00:53:21.535Z,99461.41
2022-11-10T00:56:08.150Z,99460.38
2022-11-10T00:58:54.512Z,99466.78
2022-11-10T01:01:41.037Z,99461.72
2022-11-10T01:04:28.682Z,99470.84
2022-11-10T01:07:15.028Z,99464.16
2022-11-10T01:10:01.772Z,99468.03
2022-11-10T01:12:48.377Z,99475.94
2022-11-10T01:15:34.993Z,99476.84
2022-11-10T01:18:21.220Z,99483.91
2022-11-10T01:21:09.248Z,99495.69
2022-11-10T01:23:56.075Z,99488.44
2022-11-10T01:26:42.454Z,99492.88
2022-11-10T01:29:28.766Z,99496.03
2022-11-10T01:32:15.069Z,99496.88
2022-11-10T01:35:01.494Z,99503.47
2022-11-10T01:37:49.379Z,99515.66
2022-11-10T01:40:36.075Z,99518.72
2022-11-10T01:43:23.056Z,99534.56
2022-11-10T01:46:11.094Z,99523.53
2022-11-10T01:49:01.710Z,99533.34
2022-11-10T01:51:51.933Z,99538.16
2022-11-10T01:54:41.915Z,99537.81
2022-11-10T01:57:28.250Z,99537.94
2022-11-10T02:00:15.281Z,99553.94
2022-11-10T02:03:06.877Z,99552.19
2022-11-10T02:05:53.169Z,99544.56
2022-11-10T02:08:39.765Z,99558.22
2022-11-10T02:11:28.492Z,99549.97
2022-11-10T02:14:16.748Z,99558.81
2022-11-10T02:17:03.072Z,99557.19
2022-11-10T02:19:49.574Z,99562.56
2022-11-10T02:22:38.055Z,99558.22
2022-11-10T02:25:26.485Z,99571.53
2022-11-10T02:28:13.096Z,99580.53
2022-11-10T02:30:59.368Z,99580.66
2022-11-10T02:33:46.034Z,99583.53
2022-11-10T02:36:32.685Z,99586.19
2022-11-10T02:39:20.605Z,99581.44
2022-11-10T02:42:10.329Z,99581.19
2022-11-10T02:44:57.750Z,99581.97
2022-11-10T02:47:44.230Z,99591.50
2022-11-10T02:50:30.571Z,99585.47
2022-11-10T02:53:17.001Z,99592.25
2022-11-10T02:56:04.695Z,99592.75
2022-11-10T02:58:51.019Z,99585.13
2022-11-10T03:01:37.651Z,99596.25
2022-11-10T03:04:23.974Z,99600.00
2022-11-10T03:07:10.173Z,99606.00
2022-11-10T03:09:57.058Z,99617.47
2022-11-10T03:12:44.961Z,99618.66
2022-11-10T03:15:31.718Z,99605.09
2022-11-10T03:18:18.510Z,99610.66
2022-11-10T03:21:05.133Z,99608.31
2022-11-10T03:23:51.407Z,99613.78
2022-11-10T03:26:37.593Z,99614.63
2022-11-10T03:29:25.093Z,99615.06
2022-11-10T03:32:11.184Z,99621.81
2022-11-10T03:34:57.451Z,99621.06
2022-11-10T03:37:44.690Z,99624.16
2022-11-10T03:40:31.147Z,99640.56
2022-11-10T03:43:17.476Z,99632.88
2022-11-10T03:46:05.211Z,99646.94
2022-11-10T03:48:53.684Z,99641.75
2022-11-10T03:51:40.639Z,99645.41
2022-11-10T03:54:27.282Z,99654.13
2022-11-10T03:57:13.543Z,99648.25
2022-11-10T03:59:59.694Z,99663.66
2022-11-10T04:02:47.883Z,99658.59
2022-11-10T04:05:52.151Z,99659.38
2022-11-10T04:08:56.135Z,99663.41
2022-11-10T04:12:00.121Z,99678.91
2022-11-10T04:15:08.928Z,99675.75
2022-11-10T04:18:18.747Z,99675.69
2022-11-10T04:21:05.508Z,99682.91
2022-11-10T04:23:51.791Z,99691.31
2022-11-10T04:26:38.887Z,99666.31
2022-11-10T04:29:25.460Z,99667.09
2022-11-10T04:32:12.381Z,99676.16
2022-11-10T04:35:00.392Z,99667.34
2022-11-10T04:37:47.539Z,99684.53
2022-11-10T04:40:33.714Z,99688.50
2022-11-10T04:43:20.446Z,99695.66
2022-11-10T04:46:08.876Z,99697.31
2022-11-10T04:48:56.235Z,99708.50
2022-11-10T04:51:44.157Z,99711.66
2022-11-10T04:54:30.908Z,99709.75
2022-11-10T04:57:17.249Z,99714.06
2022-11-10T05:00:04.812Z,99715.22
2022-11-10T05:02:51.040Z,99725.91
2022-11-10T05:05:37.320Z,99736.69
2022-11-10T05:08:25.229Z,99743.41
2022-11-10T05:11:13.062Z,99752.59
2022-11-10T05:13:59.843Z,99746.56
2022-11-10T05:16:46.750Z,99755.03
2022-11-10T05:19:33.267Z,99757.00
2022-11-10T05:22:19.578Z,99759.94
2022-11-10T05:25:08.486Z,99764.94
2022-11-10T05:27:54.637Z,99763.72
2022-11-10T05:30:41.178Z,99768.56
2022-11-10T05:33:27.672Z,99769.41
2022-11-10T05:36:14.333Z,99770.22
2022-11-10T05:39:00.732Z,99783.75
2022-11-10T05:41:48.835Z,99792.91
2022-11-10T05:44:35.570Z,99793.66
2022-11-10T05:47:21.768Z,99793.66
2022-11-10T05:50:09.786Z,99812.34
2022-11-10T05:52:56.793Z,99819.97
2022-11-10T05:55:43.571Z,99819.56
2022-11-10T05:58:31.092Z,99827.09
2022-11-10T06:01:17.369Z,99832.69
2022-11-10T06:04:06.680Z,99833.84
2022-11-10T06:06:52.935Z,99849.78
2022-11-10T06:09:39.298Z,99856.16
2022-11-10T06:12:30.127Z,99849.38
2022-11-10T06:15:18.077Z,99862.91
2022-11-10T06:18:04.804Z,99867.69
2022-11-10T06:20:51.348Z,99872.44
2022-11-10T06:23:37.953Z,99874.81
2022-11-10T06:26:24.555Z,99884.78
2022-11-10T06:29:10.821Z,99895.91
2022-11-10T06:31:58.815Z,99893.13
2022-11-10T06:34:45.093Z,99897.09
2022-11-10T06:37:31.366Z,99906.63
2022-11-10T06:40:17.897Z,99908.22
2022-11-10T06:43:04.382Z,99917.78
2022-11-10T06:45:50.711Z,99919.38
2022-11-10T06:48:38.395Z,99928.13
2022-11-10T06:51:24.635Z,99937.66
2022-11-10T06:54:11.281Z,99935.69
2022-11-10T06:56:57.624Z,99945.25
2022-11-10T06:59:44.174Z,99944.81
2022-11-10T07:02:30.410Z,99948.44
2022-11-10T07:05:18.371Z,99957.59
2022-11-10T07:08:05.484Z,99959.16
2022-11-10T07:10:53.945Z,99959.97
2022-11-10T07:13:40.540Z,99970.31
2022-11-10T07:16:26.938Z,99969.84
2022-11-10T07:19:13.659Z,99975.78
2022-11-10T07:22:02.659Z,99969.44
2022-11-10T07:24:51.020Z,99971.00
2022-11-10T07:27:37.413Z,99963.78
2022-11-10T07:30:23.955Z,99971.69
2022-11-10T07:33:13.152Z,99980.41
2022-11-10T07:36:03.315Z,99994.41
2022-11-10T07:38:51.247Z,100001.16
2022-11-10T07:41:37.440Z,100006.78
2022-11-10T07:44:23.654Z,100021.47
2022-11-10T07:47:09.749Z,100031.81
2022-11-10T07:49:56.366Z,100027.50
2022-11-10T07:52:42.900Z,100037.47
2022-11-10T07:55:30.671Z,100040.25
2022-11-10T07:58:20.757Z,100044.22
2022-11-10T08:01:07.301Z,100048.16
2022-11-10T08:03:53.812Z,100048.22
2022-11-10T08:06:40.255Z,100055.44
2022-11-10T08:09:26.813Z,100056.22
2022-11-10T08:12:14.410Z,100063.41
2022-11-10T08:15:00.760Z,100065.41
2022-11-10T08:17:47.629Z,100073.78
2022-11-10T08:20:34.352Z,100072.97
2022-11-10T08:23:21.165Z,100075.69
2022-11-10T08:26:08.055Z,100075.28
2022-11-10T08:28:56.168Z,100090.72
2022-11-10T08:31:42.772Z,100083.00
2022-11-10T08:34:29.403Z,100090.50
2022-11-10T08:37:15.736Z,100105.16
2022-11-10T08:40:01.943Z,100103.09
2022-11-10T08:42:48.826Z,100109.00
2022-11-10T08:45:37.400Z,100120.13
2022-11-10T08:48:24.138Z,100131.44
2022-11-10T08:51:10.549Z,100131.38
2022-11-10T08:53:56.971Z,100136.94
2022-11-10T08:56:43.703Z,100131.03
2022-11-10T08:59:29.905Z,100133.81
2022-11-10T09:02:17.566Z,100137.06
2022-11-10T09:05:04.256Z,100145.56
2022-11-10T09:07:51.491Z,100143.91
2022-11-10T09:10:40.571Z,100150.03
2022-11-10T09:13:30.335Z,100150.53
2022-11-10T09:16:17.529Z,100162.88
2022-11-10T09:19:05.025Z,100168.09
2022-11-10T09:21:51.613Z,100178.91
2022-11-10T09:24:38.345Z,100180.34
2022-11-10T09:27:24.893Z,100191.81
2022-11-10T09:30:17.407Z,100196.47
2022-11-10T09:33:04.383Z,100209.44
2022-11-10T09:35:52.485Z,100216.84
2022-11-10T09:38:39.325Z,100230.38
2022-11-10T09:41:29.824Z,100237.69
2022-11-10T09:44:20.412Z,100244.78
2022-11-10T09:47:19.078Z,100250.09
2022-11-10T09:50:22.532Z,100242.94
2022-11-10T09:53:16.281Z,100250.72
2022-11-10T09:56:05.097Z,100252.81
2022-11-10T09:58:51.964Z,100246.69
2022-11-10T10:01:46.636Z,100254.81
2022-11-10T10:04:53.145Z,100250.69
2022-11-10T10:07:47.883Z,100251.84
2022-11-10T10:10:40.496Z,100248.75
2022-11-10T10:13:48.105Z,100243.56
2022-11-10T10:16:41.281Z,100234.09
2022-11-10T10:19:36.506Z,100236.50
2022-11-10T10:22:50.634Z,100233.50
2022-11-10T10:25:40.683Z,100236.25
2022-11-10T10:28:33.162Z,100240.88
2022-11-10T10:31:21.822Z,100241.03
2022-11-10T10:34:13.832Z,100235.00
2022-11-10T10:37:00.407Z,100226.91
2022-11-10T10:39:50.054Z,100229.06
2022-11-10T10:42:38.957Z,100231.28
2022-11-10T10:45:27.369Z,100241.03
2022-11-10T10:48:27.853Z,100242.03
2022-11-10T10:51:29.817Z,100245.06
2022-11-10T10:54:29.234Z,100237.63
2022-11-10T10:57:28.183Z,100238.44
2022-11-10T11:00:22.150Z,100239.31
2022-11-10T11:03:15.566Z,100250.59
2022-11-10T11:06:07.524Z,100233.78
2022-11-10T11:09:02.448Z,100243.34
2022-11-10T11:12:01.777Z,100234.97
2022-11-10T11:14:48.171Z,100237.34
2022-11-10T11:17:36.528Z,100242.53
2022-11-10T11:20:32.339Z,100247.28
2022-11-10T11:23:36.289Z,100253.88
2022-11-10T11:26:29.455Z,100248.19
2022-11-10T11:29:32.555Z,100250.81
2022-11-10T11:32:28.506Z,100253.13
2022-11-10T11:35:25.649Z,100244.63
2022-11-10T11:38:15.134Z,100249.75
2022-11-10T11:41:17.757Z,100249.09
2022-11-10T11:44:20.340Z,100248.44
2022-11-10T11:47:21.993Z,100243.06
2022-11-10T11:50:24.816Z,100239.59
2022-11-10T11:53:24.384Z,100234.03
2022-11-10T11:56:23.388Z,100233.59
2022-11-10T11:59:23.013Z,100236.00
2022-11-10T12:02:36.769Z,100227.97
2022-11-10T12:05:37.177Z,100238.19
2022-11-10T12:08:33.934Z,100241.09
2022-11-10T12:11:29.324Z,100243.41
2022-11-10T12:14:22.117Z,100243.69
2022-11-10T12:17:13.745Z,100247.72
2022-11-10T12:20:07.163Z,100260.69
2022-11-10T12:23:03.176Z,100249.84
2022-11-10T12:26:00.597Z,100252.34
2022-11-10T12:28:52.629Z,100248.03
2022-11-10T12:31:40.231Z,100251.00
2022-11-10T12:34:33.969Z,100245.22
2022-11-10T12:37:27.987Z,100258.41
2022-11-10T12:40:20.426Z,100256.75
2022-11-10T12:43:13.019Z,100256.03
2022-11-10T12:46:04.199Z,100258.94
2022-11-10T12:49:00.638Z,100256.19
2022-11-10T12:51:55.603Z,100260.22
2022-11-10T12:54:45.917Z,100262.81
2022-11-10T12:57:34.206Z,100258.44
2022-11-10T13:00:28.516Z,100260.16
2022-11-10T13:03:25.646Z,100259.50
2022-11-10T13:06:27.021Z,100261.09
2022-11-10T13:09:24.733Z,100259.91
2022-11-10T13:12:20.138Z,100257.34
2022-11-10T13:15:40.144Z,100268.66
2022-11-10T13:19:01.160Z,100264.13
2022-11-10T13:22:07.127Z,100266.72
2022-11-10T13:24:53.376Z,100270.19
2022-11-10T13:27:53.216Z,100281.28
2022-11-10T13:30:45.974Z,100282.41
2022-11-10T13:33:36.879Z,100279.53
2022-11-10T13:36:40.149Z,100276.06
2022-11-10T13:39:29.110Z,100278.22
2022-11-10T13:42:20.384Z,100283.03
2022-11-10T13:45:29.068Z,100277.34
2022-11-10T13:48:27.561Z,100284.34
2022-11-10T13:51:27.114Z,100284.00
2022-11-10T13:54:34.358Z,100293.44
2022-11-10T13:57:30.685Z,100296.41
2022-11-10T14:00:26.892Z,100289.13
2022-11-10T14:04:00.377Z,100287.13
2022-11-10T14:06:51.247Z,100291.66
2022-11-10T14:09:41.804Z,100284.72
2022-11-10T14:12:31.807Z,100285.28
2022-11-10T14:15:20.201Z,100294.50
2022-11-10T14:18:19.249Z,100304.69
2022-11-10T14:21:06.720Z,100310.97
2022-11-10T14:23:57.455Z,100312.44
2022-11-10T14:26:50.625Z,100308.41
2022-11-10T14:29:39.914Z,100322.56
2022-11-10T14:32:27.028Z,100321.41
2022-11-10T14:35:23.097Z,100325.97
2022-11-10T14:38:20.894Z,100323.88
2022-11-10T14:41:15.064Z,100329.66
2022-11-10T14:44:04.338Z,100330.00
2022-11-10T14:46:50.579Z,100338.03
2022-11-10T14:49:36.857Z,100334.06
2022-11-10T14:52:23.329Z,100342.94
2022-11-10T14:55:14.520Z,100332.69
2022-11-10T14:58:05.172Z,100333.13
2022-11-10T15:00:54.241Z,100346.41
2022-11-10T15:03:42.922Z,100337.59
2022-11-10T15:06:46.812Z,100345.53
2022-11-10T15:09:34.627Z,100340.16
2022-11-10T15:12:24.646Z,100341.31
2022-11-10T15:15:22.953Z,100339.22
2022-11-10T15:18:29.146Z,100343.97
2022-11-10T15:21:17.845Z,100347.47
2022-11-10T15:24:06.916Z,100354.41
2022-11-10T15:26:53.386Z,100351.81
2022-11-10T15:29:39.813Z,100347.22
2022-11-10T15:32:35.187Z,100345.66
2022-11-10T15:35:31.865Z,100347.97
2022-11-10T15:38:28.101Z,100342.78
2022-11-10T15:41:26.822Z,100360.34
2022-11-10T15:44:19.005Z,100370.03
2022-11-10T15:47:06.832Z,100370.94
2022-11-10T15:49:52.906Z,100364.59
2022-11-10T15:52:40.659Z,100373.00
2022-11-10T15:55:27.620Z,100374.72
2022-11-10T15:58:19.404Z,100375.97
2022-11-10T16:01:06.040Z,100392.53
2022-11-10T16:03:52.513Z,100388.13
2022-11-10T16:06:40.056Z,100388.53
2022-11-10T16:09:27.600Z,100385.75
2022-11-10T16:12:17.459Z,100389.03
2022-11-10T16:15:04.483Z,100385.06
2022-11-10T16:17:51.340Z,100391.09
2022-11-10T16:20:37.915Z,100388.31
2022-11-10T16:23:25.652Z,100391.91
2022-11-10T16:26:16.117Z,100384.69
2022-11-10T16:29:02.866Z,100395.91
2022-11-10T16:31:50.372Z,100394.72
2022-11-10T16:34:36.662Z,100389.50
2022-11-10T16:37:23.285Z,100391.91
2022-11-10T16:40:15.595Z,100385.50
2022-11-10T16:43:03.031Z,100394.72
2022-11-10T16:45:51.072Z,100407.13
2022-11-10T16:48:37.697Z,100403.09
2022-11-10T16:51:30.423Z,100409.50
2022-11-10T16:54:17.259Z,100408.72
2022-11-10T16:57:03.312Z,100415.50
2022-11-10T16:59:51.021Z,100417.06
2022-11-10T17:02:39.763Z,100419.47
2022-11-10T17:05:25.939Z,100414.72
2022-11-10T17:08:22.130Z,100417.88
2022-11-10T17:11:10.136Z,100425.88
2022-11-10T17:13:56.764Z,100429.44
2022-11-10T17:16:46.529Z,100432.59
2022-11-10T17:19:32.997Z,100428.53
2022-11-10T17:22:44.265Z,100437.41
2022-11-10T17:25:33.135Z,100441.41
2022-11-10T17:28:20.089Z,100438.19
2022-11-10T17:31:06.793Z,100439.41
2022-11-10T17:33:55.230Z,100442.97
2022-11-10T17:36:41.897Z,100444.19
2022-11-10T17:39:28.208Z,100446.53
2022-11-10T17:42:15.182Z,100452.91
2022-11-10T17:45:01.896Z,100455.94
2022-11-10T17:47:49.060Z,100456.81
2022-11-10T17:50:39.295Z,100453.19
2022-11-10T17:53:28.157Z,100455.91
2022-11-10T17:56:15.117Z,100447.09
2022-11-10T17:59:01.466Z,100456.56
2022-11-10T18:01:48.461Z,100466.06
2022-11-10T18:04:34.620Z,100464.22
2022-11-10T18:07:22.312Z,100472.41
2022-11-10T18:10:12.573Z,100463.09
2022-11-10T18:12:59.035Z,100478.34
2022-11-10T18:15:46.858Z,100486.06
2022-11-10T18:18:33.558Z,100486.75
2022-11-10T18:21:19.836Z,100492.47
2022-11-10T18:24:07.647Z,100498.31
2022-11-10T18:26:54.248Z,100503.94
2022-11-10T18:29:40.842Z,100501.00
2022-11-10T18:32:27.113Z,100503.34
2022-11-10T18:35:13.345Z,100498.34
2022-11-10T18:37:59.708Z,100496.78
2022-11-10T18:40:47.649Z,100488.88
2022-11-10T18:43:33.835Z,100488.41
2022-11-10T18:46:20.276Z,100490.94
2022-11-10T18:49:06.641Z,100481.75
2022-11-10T18:51:53.159Z,100484.78
2022-11-10T18:54:39.449Z,100485.09
2022-11-10T18:57:27.753Z,100492.91
2022-11-10T19:00:14.941Z,100497.41
2022-11-10T19:03:01.291Z,100488.84
2022-11-10T19:05:55.632Z,100494.16
2022-11-10T19:08:45.296Z,100501.00
2022-11-10T19:11:32.662Z,100488.78
2022-11-10T19:14:20.632Z,100498.94
2022-11-10T19:17:06.843Z,100515.44
2022-11-10T19:19:56.488Z,100510.06
2022-11-10T19:22:43.392Z,100516.56
2022-11-10T19:25:29.684Z,100515.53
2022-11-10T19:28:15.873Z,100523.19
2022-11-10T19:31:05.483Z,100531.09
2022-11-10T19:33:53.686Z,100537.22
2022-11-10T19:36:40.486Z,100535.25
2022-11-10T19:39:26.796Z,100525.41
2022-11-10T19:42:13.164Z,100530.97
2022-11-10T19:45:00.489Z,100539.38
2022-11-10T19:47:48.088Z,100538.69
2022-11-10T19:50:34.427Z,100552.56
2022-11-10T19:53:21.031Z,100560.34
2022-11-10T19:56:11.578Z,100557.88
2022-11-10T19:58:58.492Z,100563.28
2022-11-10T20:01:44.648Z,100561.91
2022-11-10T20:04:32.789Z,100549.00
2022-11-10T20:07:36.957Z,100541.09
2022-11-10T20:10:23.788Z,100547.78
2022-11-10T20:13:12.158Z,100548.78
2022-11-10T20:15:58.704Z,100556.28
2022-11-10T20:18:45.392Z,100565.09
2022-11-10T20:21:33.563Z,100562.84
2022-11-10T20:24:19.910Z,100559.06
2022-11-10T20:27:06.204Z,100560.63
2022-11-10T20:29:53.225Z,100558.47
2022-11-10T20:32:39.496Z,100560.44
2022-11-10T20:35:25.802Z,100562.16
2022-11-10T20:38:13.312Z,100553.50
2022-11-10T20:41:03.945Z,100551.66
2022-11-10T20:43:50.846Z,100550.06
2022-11-10T20:46:54.045Z,100559.16
2022-11-10T20:49:41.186Z,100561.81
2022-11-10T20:52:27.851Z,100569.81
2022-11-10T20:55:18.464Z,100578.19
2022-11-10T20:58:04.872Z,100569.91
2022-11-10T21:00:51.353Z,100573.31
2022-11-10T21:03:38.581Z,100573.75
2022-11-10T21:06:25.223Z,100555.06
2022-11-10T21:09:12.107Z,100553.22
2022-11-10T21:12:17.895Z,100540.72
2022-11-10T21:15:04.847Z,100540.66
2022-11-10T21:17:51.155Z,100537.69
2022-11-10T21:20:37.567Z,100531.53
2022-11-10T21:23:24.619Z,100533.97
2022-11-10T21:26:11.089Z,100539.34
2022-11-10T21:28:59.625Z,100537.06
2022-11-10T21:31:46.120Z,100548.41
2022-11-10T21:34:32.858Z,100552.88
2022-11-10T21:37:19.535Z,100551.38
2022-11-10T21:40:06.911Z,100563.53
2022-11-10T21:42:56.127Z,100558.59
2022-11-10T21:45:43.965Z,100567.94
2022-11-10T21:48:30.389Z,100572.09
2022-11-10T21:51:16.613Z,100579.47
2022-11-10T21:54:02.867Z,100587.78
2022-11-10T21:56:49.302Z,100587.13
2022-11-10T21:59:36.493Z,100591.88
2022-11-10T22:02:24.211Z,100593.03
2022-11-10T22:05:10.402Z,100590.47
2022-11-10T22:07:56.948Z,100601.13
2022-11-10T22:11:00.940Z,100596.13
2022-11-10T22:14:05.659Z,100594.91
2022-11-10T22:17:10.081Z,100589.63
2022-11-10T22:19:58.073Z,100591.25
2022-11-10T22:22:45.249Z,100588.38
2022-11-10T22:25:31.740Z,100571.25
2022-11-10T22:28:20.571Z,100578.72
2022-11-10T22:31:08.557Z,100584.34
2022-11-10T22:33:54.823Z,100586.50
2022-11-10T22:36:42.717Z,100591.75
2022-11-10T22:39:49.414Z,100586.56
2022-11-10T22:43:06.778Z,100581.25
2022-11-10T22:45:53.291Z,100588.00
2022-11-10T22:48:39.832Z,100592.63
2022-11-10T22:51:28.084Z,100587.38
2022-11-10T22:54:17.391Z,100584.28
2022-11-10T22:57:04.727Z,100573.00
2022-11-10T22:59:51.064Z,100573.41
2022-11-10T23:02:37.808Z,100578.84
2022-11-10T23:05:24.056Z,100583.34
2022-11-10T23:08:10.560Z,100581.44
2022-11-10T23:11:02.859Z,100581.59
2022-11-10T23:13:50.714Z,100585.09
2022-11-10T23:16:37.280Z,100584.50
2022-11-10T23:19:23.548Z,100598.09
2022-11-10T23:22:09.950Z,100594.50
2022-11-10T23:24:57.457Z,100592.25
2022-11-10T23:27:45.571Z,100600.84
2022-11-10T23:30:33.763Z,100597.97
2022-11-10T23:33:20.364Z,100593.13
2022-11-10T23:36:07.921Z,100590.34
2022-11-10T23:38:55.868Z,100599.28
2022-11-10T23:41:42.271Z,100594.56
2022-11-10T23:44:30.126Z,100598.06
2022-11-10T23:47:16.709Z,100610.09
2022-11-10T23:50:03.147Z,100597.41
2022-11-10T23:52:49.366Z,100604.84
2022-11-10T23:55:36.143Z,100601.28
2022-11-10T23:58:23.041Z,100603.22
